Time;durP1;ratioP1;P1;durP2;ratioP2;P2;SDS_P1;SDS_P2;PMS_P1;PMS_P2;Temp;Humidity;BMP_temperature;BMP_pressure;BME280_temperature;BME280_humidity;BME280_pressure;Samples;Min_cycle;Max_cycle;Signal;HPM_P1;HPM_P2
2022/07/07 00:01:45;;;;;;;10.80;7.00;;;16.80;99.90;;;;;;5047603;28;20057;-79
2022/07/07 00:04:10;;;;;;;7.78;5.53;;;16.80;99.90;;;;;;5044364;28;20037;-79
2022/07/07 00:06:36;;;;;;;9.48;5.88;;;17.00;99.90;;;;;;5049332;28;20522;-78
2022/07/07 00:09:03;;;;;;;7.90;5.30;;;16.80;99.90;;;;;;5046576;28;20119;-79
2022/07/07 00:11:29;;;;;;;7.85;5.47;;;16.80;99.90;;;;;;5049892;28;20102;-78
2022/07/07 00:13:55;;;;;;;10.15;5.10;;;16.70;99.90;;;;;;5047188;28;20618;-79
2022/07/07 00:16:21;;;;;;;9.95;5.50;;;16.80;99.90;;;;;;5042683;28;20073;-78
2022/07/07 00:18:47;;;;;;;7.22;5.13;;;16.80;99.90;;;;;;5046943;28;20139;-78
2022/07/07 00:21:13;;;;;;;8.82;5.15;;;16.80;99.90;;;;;;5040961;28;20041;-79
2022/07/07 00:23:38;;;;;;;11.27;5.63;;;16.70;99.90;;;;;;5052821;28;20037;-78
2022/07/07 00:26:04;;;;;;;12.25;5.85;;;16.80;99.90;;;;;;5043012;28;20057;-78
2022/07/07 00:28:30;;;;;;;7.88;5.10;;;16.70;99.90;;;;;;5046466;28;20495;-79
2022/07/07 00:30:56;;;;;;;10.88;6.03;;;16.70;99.90;;;;;;5027680;28;20041;-78
2022/07/07 00:33:21;;;;;;;9.40;5.68;;;16.70;99.90;;;;;;5048593;28;20045;-78
2022/07/07 00:35:47;;;;;;;8.98;5.43;;;16.60;99.90;;;;;;5048809;28;20033;-79
2022/07/07 00:38:13;;;;;;;7.97;5.45;;;16.70;99.90;;;;;;5029892;28;20145;-79
2022/07/07 00:40:38;;;;;;;7.18;5.40;;;16.70;99.90;;;;;;5042834;28;20040;-79
2022/07/07 00:43:04;;;;;;;7.05;5.78;;;16.70;99.90;;;;;;5046543;28;20556;-78
2022/07/07 00:45:30;;;;;;;11.77;5.80;;;16.70;99.90;;;;;;5029067;28;20661;-78
2022/07/07 00:47:56;;;;;;;9.75;5.93;;;16.70;99.90;;;;;;5043709;28;20491;-78
2022/07/07 00:50:23;;;;;;;7.57;5.68;;;16.70;99.90;;;;;;5046101;28;20094;-78
2022/07/07 00:52:48;;;;;;;9.88;6.10;;;16.60;99.90;;;;;;5025524;28;20048;-79
2022/07/07 00:55:14;;;;;;;10.32;5.80;;;16.50;99.90;;;;;;5049515;28;20049;-77
2022/07/07 00:57:39;;;;;;;9.65;5.03;;;16.60;99.90;;;;;;5044780;28;20040;-78
2022/07/07 01:00:12;;;;;;;8.57;3.67;;;16.50;99.90;;;;;;5035706;28;20423;-78
2022/07/07 01:02:37;;;;;;;4.25;2.58;;;16.50;99.90;;;;;;5037639;28;20045;-76
2022/07/07 01:05:07;;;;;;;5.97;2.70;;;16.40;99.90;;;;;;5042623;28;20037;-76
2022/07/07 01:07:33;;;;;;;7.15;2.85;;;16.30;99.90;;;;;;5047056;28;20041;-78
2022/07/07 01:09:59;;;;;;;3.83;2.53;;;16.10;99.90;;;;;;5048160;28;20441;-76
2022/07/07 01:12:31;;;;;;;8.63;2.85;;;16.10;99.90;;;;;;5043912;28;20032;-76
2022/07/07 01:14:57;;;;;;;6.85;3.05;;;16.10;99.90;;;;;;5043776;28;20047;-77
2022/07/07 01:17:22;;;;;;;5.43;2.78;;;16.00;99.90;;;;;;5045187;28;20132;-76
2022/07/07 01:19:48;;;;;;;6.80;2.80;;;16.00;99.90;;;;;;5039942;28;20509;-76
2022/07/07 01:22:15;;;;;;;7.90;2.90;;;16.00;99.90;;;;;;5044865;28;20411;-76
2022/07/07 01:24:41;;;;;;;4.75;2.80;;;16.00;99.90;;;;;;5042148;28;20434;-77
2022/07/07 01:27:27;;;;;;;6.53;2.88;;;16.00;99.90;;;;;;5043577;28;20048;-77
2022/07/07 01:29:55;;;;;;;4.97;2.65;;;16.00;99.90;;;;;;5035679;28;20041;-78
2022/07/07 01:32:22;;;;;;;8.88;3.35;;;15.90;99.90;;;;;;5047415;28;20123;-76
2022/07/07 01:34:48;;;;;;;5.85;3.17;;;16.00;99.90;;;;;;5039611;28;20086;-77
2022/07/07 01:37:14;;;;;;;6.90;2.95;;;16.00;99.90;;;;;;5043566;28;20051;-77
2022/07/07 01:39:41;;;;;;;8.38;3.47;;;16.00;99.90;;;;;;5048187;28;20049;-77
2022/07/07 01:42:08;;;;;;;9.30;3.38;;;15.90;99.90;;;;;;5042828;28;20116;-78
2022/07/07 01:44:34;;;;;;;6.90;3.50;;;16.00;99.90;;;;;;5035869;28;20081;-77
2022/07/07 01:47:00;;;;;;;7.40;4.00;;;16.00;99.90;;;;;;5031523;28;20035;-76
2022/07/07 01:49:27;;;;;;;7.15;3.58;;;16.00;99.90;;;;;;5031462;28;20120;-78
2022/07/07 01:51:53;;;;;;;7.22;3.65;;;16.00;99.90;;;;;;5040118;28;20091;-78
2022/07/07 01:54:19;;;;;;;8.73;3.85;;;16.00;99.90;;;;;;5046473;28;20067;-77
2022/07/07 01:56:45;;;;;;;8.52;3.50;;;16.00;99.90;;;;;;5032172;28;20550;-77
2022/07/07 01:59:12;;;;;;;8.45;3.75;;;16.00;99.90;;;;;;5044101;28;20044;-78
2022/07/07 02:01:38;;;;;;;8.82;4.00;;;16.10;99.90;;;;;;5048149;28;20126;-78
2022/07/07 02:04:04;;;;;;;11.30;3.60;;;16.10;99.90;;;;;;5034482;28;20622;-78
2022/07/07 02:06:30;;;;;;;11.35;3.65;;;16.00;99.90;;;;;;5033017;28;20116;-77
2022/07/07 02:08:55;;;;;;;6.18;3.55;;;16.10;99.90;;;;;;5061334;28;20117;-77
2022/07/07 02:11:21;;;;;;;10.85;3.70;;;16.10;99.90;;;;;;5047368;28;20513;-78
2022/07/07 02:13:49;;;;;;;6.65;3.55;;;16.10;99.90;;;;;;5043374;28;20573;-77
2022/07/07 02:16:17;;;;;;;9.80;3.65;;;16.10;99.90;;;;;;5032009;28;20151;-77
2022/07/07 02:18:43;;;;;;;9.25;3.67;;;16.10;99.90;;;;;;5044967;28;20044;-78
2022/07/07 02:21:11;;;;;;;11.75;3.80;;;16.10;99.90;;;;;;5045449;28;20038;-77
2022/07/07 02:23:38;;;;;;;11.88;3.50;;;16.10;99.90;;;;;;5052049;28;20029;-77
2022/07/07 02:26:04;;;;;;;9.45;3.50;;;16.10;99.90;;;;;;5038798;28;20479;-79
2022/07/07 02:28:30;;;;;;;10.02;3.30;;;16.10;99.90;;;;;;5050877;28;20092;-77
2022/07/07 02:30:58;;;;;;;11.40;3.15;;;16.10;99.90;;;;;;5049580;28;20494;-78
2022/07/07 02:33:23;;;;;;;8.10;2.70;;;16.10;99.90;;;;;;5048864;28;20044;-78
2022/07/07 02:35:50;;;;;;;9.80;3.03;;;16.10;99.90;;;;;;5029031;28;20041;-78
2022/07/07 02:38:16;;;;;;;9.15;2.67;;;16.00;99.90;;;;;;5044418;28;20048;-78
2022/07/07 02:40:42;;;;;;;9.55;2.80;;;16.00;99.90;;;;;;5044590;28;20483;-78
2022/07/07 02:43:15;;;;;;;8.15;2.33;;;16.10;99.90;;;;;;5048831;28;20041;-78
2022/07/07 02:45:42;;;;;;;6.80;2.15;;;16.00;99.90;;;;;;5025110;28;20463;-77
2022/07/07 02:48:09;;;;;;;7.45;2.20;;;16.00;99.90;;;;;;5046916;28;20169;-78
2022/07/07 02:50:38;;;;;;;6.00;2.30;;;16.00;99.90;;;;;;5039462;28;20033;-79
2022/07/07 02:53:04;;;;;;;12.27;2.50;;;16.00;99.90;;;;;;5041220;28;20029;-79
2022/07/07 02:55:30;;;;;;;7.28;2.25;;;16.00;99.90;;;;;;5045670;28;20037;-81
2022/07/07 02:58:00;;;;;;;9.55;2.30;;;15.90;99.90;;;;;;5035665;28;20041;-79
2022/07/07 03:00:26;;;;;;;11.82;2.20;;;15.90;99.90;;;;;;5047078;28;20032;-80
2022/07/07 03:02:53;;;;;;;9.50;2.50;;;15.90;99.90;;;;;;5048637;28;20033;-79
2022/07/07 03:05:20;;;;;;;11.80;2.85;;;15.90;99.90;;;;;;5043763;28;20041;-79
2022/07/07 03:07:45;;;;;;;12.15;2.42;;;16.00;99.90;;;;;;5038800;28;20116;-79
2022/07/07 03:10:11;;;;;;;10.80;2.90;;;15.90;99.90;;;;;;5036532;28;20422;-79
2022/07/07 03:12:37;;;;;;;12.65;2.65;;;15.90;99.90;;;;;;5049358;28;20045;-79
2022/07/07 03:15:03;;;;;;;8.00;2.50;;;15.90;99.90;;;;;;5037402;28;20200;-79
2022/07/07 03:17:28;;;;;;;9.82;2.38;;;15.90;99.90;;;;;;5066318;28;20952;-78
2022/07/07 03:19:54;;;;;;;13.57;2.60;;;15.90;99.90;;;;;;5050670;28;20049;-79
2022/07/07 03:22:19;;;;;;;11.15;2.47;;;15.80;99.90;;;;;;5051587;28;20041;-79
2022/07/07 03:24:45;;;;;;;12.52;2.60;;;15.70;99.90;;;;;;5042417;28;20380;-78
2022/07/07 03:27:11;;;;;;;7.85;2.25;;;15.90;99.90;;;;;;5032647;28;20041;-78
2022/07/07 03:29:36;;;;;;;11.48;2.63;;;15.90;99.90;;;;;;5032349;28;20123;-78
2022/07/07 03:32:02;;;;;;;10.50;2.88;;;15.80;99.90;;;;;;5048014;28;20573;-77
2022/07/07 03:34:28;;;;;;;13.18;2.58;;;15.80;99.90;;;;;;5040368;28;20124;-79
2022/07/07 03:36:54;;;;;;;9.70;2.13;;;15.80;99.90;;;;;;5030609;28;20064;-79
2022/07/07 03:39:19;;;;;;;12.73;2.28;;;15.80;99.90;;;;;;5052280;28;20040;-78
2022/07/07 03:41:45;;;;;;;13.27;2.45;;;15.70;99.90;;;;;;5043003;28;20045;-79
2022/07/07 03:44:11;;;;;;;11.52;2.17;;;15.70;99.90;;;;;;5030461;28;20407;-78
2022/07/07 03:46:36;;;;;;;9.32;1.80;;;15.70;99.90;;;;;;5043159;28;20040;-77
2022/07/07 03:49:02;;;;;;;10.15;1.77;;;15.70;99.90;;;;;;5035379;28;20037;-78
2022/07/07 03:51:27;;;;;;;9.05;1.90;;;15.70;99.90;;;;;;5043644;28;20044;-79
2022/07/07 03:53:53;;;;;;;12.00;1.83;;;15.70;99.90;;;;;;5048765;28;20044;-78
2022/07/07 03:56:18;;;;;;;10.38;1.58;;;15.70;99.90;;;;;;5048618;28;20159;-80
2022/07/07 03:58:44;;;;;;;8.55;1.83;;;15.60;99.90;;;;;;5048438;28;20041;-79
2022/07/07 04:01:09;;;;;;;8.43;1.30;;;15.60;99.90;;;;;;5050213;28;20055;-80
2022/07/07 04:03:35;;;;;;;9.18;1.77;;;15.60;99.90;;;;;;5048859;28;20082;-79
2022/07/07 04:06:01;;;;;;;8.52;1.58;;;15.60;99.90;;;;;;5044669;28;20430;-79
2022/07/07 04:08:26;;;;;;;9.50;1.52;;;15.50;99.90;;;;;;5038479;28;20091;-79
2022/07/07 04:10:52;;;;;;;10.20;1.50;;;15.50;99.90;;;;;;5028561;28;20045;-79
2022/07/07 04:13:17;;;;;;;9.95;1.50;;;15.50;99.90;;;;;;5046186;28;20110;-78
2022/07/07 04:15:43;;;;;;;7.32;1.70;;;15.40;99.90;;;;;;5038964;28;20132;-77
2022/07/07 04:18:09;;;;;;;8.18;1.92;;;15.40;99.90;;;;;;5042662;28;20128;-77
2022/07/07 04:20:34;;;;;;;8.90;1.52;;;15.40;99.90;;;;;;5050248;28;20047;-77
2022/07/07 04:23:00;;;;;;;11.70;1.80;;;15.40;99.90;;;;;;5049713;28;20415;-79
2022/07/07 04:25:25;;;;;;;12.05;2.45;;;15.40;99.90;;;;;;5045365;28;20033;-78
2022/07/07 04:27:51;;;;;;;10.13;1.73;;;15.40;99.90;;;;;;5046625;28;20101;-78
2022/07/07 04:30:17;;;;;;;7.32;1.75;;;15.40;99.90;;;;;;5032429;28;20451;-77
2022/07/07 04:32:42;;;;;;;8.35;1.70;;;15.30;99.90;;;;;;5042005;28;20063;-79
2022/07/07 04:35:08;;;;;;;8.65;1.70;;;15.40;99.90;;;;;;5044968;28;20074;-78
2022/07/07 04:37:34;;;;;;;9.98;2.00;;;15.40;99.90;;;;;;5046450;28;20049;-77
2022/07/07 04:40:00;;;;;;;7.85;2.00;;;15.50;99.90;;;;;;5051202;28;20048;-78
2022/07/07 04:42:26;;;;;;;8.23;1.70;;;15.40;99.90;;;;;;5044041;28;20052;-76
2022/07/07 04:44:51;;;;;;;7.43;1.40;;;15.50;99.90;;;;;;5047785;28;20055;-77
2022/07/07 04:47:17;;;;;;;9.00;1.70;;;15.40;99.90;;;;;;5047606;28;20047;-78
2022/07/07 04:49:43;;;;;;;5.43;1.38;;;15.50;99.90;;;;;;5039068;28;20580;-77
2022/07/07 04:52:08;;;;;;;8.07;1.80;;;15.50;99.90;;;;;;5047631;28;20410;-79
2022/07/07 04:54:34;;;;;;;8.02;1.25;;;15.50;99.90;;;;;;5048453;28;20040;-77
2022/07/07 04:57:00;;;;;;;9.50;1.40;;;15.50;99.90;;;;;;5043259;28;20703;-79
2022/07/07 04:59:25;;;;;;;6.13;1.40;;;15.50;99.90;;;;;;5038732;28;20487;-76
2022/07/07 05:01:51;;;;;;;8.63;1.77;;;15.50;99.90;;;;;;5038409;28;20085;-76
2022/07/07 05:04:16;;;;;;;9.68;1.75;;;15.50;99.90;;;;;;5041789;28;20037;-76
2022/07/07 05:06:42;;;;;;;6.35;1.30;;;15.50;99.90;;;;;;5034491;28;20028;-76
2022/07/07 05:09:09;;;;;;;10.65;1.70;;;15.50;99.90;;;;;;5046268;28;20415;-76
2022/07/07 05:11:35;;;;;;;8.95;1.98;;;15.50;99.90;;;;;;5047318;28;20053;-76
2022/07/07 05:14:01;;;;;;;9.98;1.90;;;15.50;99.90;;;;;;5030126;28;20057;-76
2022/07/07 05:16:27;;;;;;;14.40;2.33;;;15.50;99.90;;;;;;5031630;28;20034;-77
2022/07/07 05:18:52;;;;;;;9.50;1.83;;;15.40;99.90;;;;;;5044603;28;20379;-77
2022/07/07 05:21:18;;;;;;;12.88;2.35;;;15.40;99.90;;;;;;5044607;28;20045;-78
2022/07/07 05:23:43;;;;;;;13.20;1.92;;;15.40;99.90;;;;;;5046454;28;20380;-77
2022/07/07 05:26:09;;;;;;;12.10;1.90;;;15.40;99.90;;;;;;5035992;28;20044;-77
2022/07/07 05:28:36;;;;;;;10.25;1.95;;;15.40;99.90;;;;;;5042073;28;20064;-78
2022/07/07 05:31:02;;;;;;;13.18;2.60;;;15.50;99.90;;;;;;5041692;28;20041;-77
2022/07/07 05:33:28;;;;;;;10.55;2.17;;;15.40;99.90;;;;;;5028653;28;20044;-78
2022/07/07 05:35:54;;;;;;;11.85;2.10;;;15.40;99.90;;;;;;5046088;28;20055;-79
2022/07/07 05:38:19;;;;;;;12.68;2.15;;;15.40;99.90;;;;;;5045528;28;20040;-78
2022/07/07 05:40:45;;;;;;;11.88;2.20;;;15.50;99.90;;;;;;5042781;28;20039;-78
2022/07/07 05:43:10;;;;;;;12.45;2.60;;;15.40;99.90;;;;;;5049697;28;20048;-78
2022/07/07 05:45:36;;;;;;;6.82;1.98;;;15.40;99.90;;;;;;5053279;28;20420;-76
2022/07/07 05:48:01;;;;;;;10.77;2.30;;;15.40;99.90;;;;;;5042376;28;20037;-78
2022/07/07 05:50:27;;;;;;;8.10;1.80;;;15.40;99.90;;;;;;5041161;28;20048;-78
2022/07/07 05:52:52;;;;;;;10.43;2.03;;;15.40;99.90;;;;;;5048178;28;20119;-78
2022/07/07 05:55:18;;;;;;;14.48;2.38;;;15.40;99.90;;;;;;5048299;28;20549;-77
2022/07/07 05:57:43;;;;;;;13.32;2.30;;;15.50;99.90;;;;;;5050798;28;20067;-77
2022/07/07 06:00:10;;;;;;;13.70;2.25;;;15.60;99.90;;;;;;5018002;28;20133;-78
2022/07/07 06:02:35;;;;;;;11.15;2.03;;;15.70;99.90;;;;;;5048398;28;20120;-78
2022/07/07 06:05:02;;;;;;;12.35;2.00;;;15.80;99.90;;;;;;5048723;28;20141;-77
2022/07/07 06:07:27;;;;;;;11.07;2.10;;;15.90;99.90;;;;;;5020212;28;20052;-77
2022/07/07 06:09:53;;;;;;;9.25;1.90;;;16.20;99.90;;;;;;5049459;28;20418;-78
2022/07/07 06:12:18;;;;;;;8.23;2.10;;;16.30;99.90;;;;;;5052483;28;20033;-78
2022/07/07 06:14:44;;;;;;;7.38;1.77;;;16.50;99.90;;;;;;5045092;28;20054;-77
2022/07/07 06:17:10;;;;;;;8.77;1.67;;;16.70;99.90;;;;;;5049763;28;20167;-78
2022/07/07 06:19:35;;;;;;;10.38;1.38;;;16.80;99.90;;;;;;5048046;28;20037;-76
2022/07/07 06:22:01;;;;;;;9.13;1.60;;;16.70;99.90;;;;;;5046328;28;20090;-75
2022/07/07 06:24:26;;;;;;;7.20;1.70;;;16.50;99.90;;;;;;5036067;28;20040;-76
2022/07/07 06:26:52;;;;;;;8.05;1.33;;;16.30;99.90;;;;;;5033680;28;20068;-77
2022/07/07 06:29:18;;;;;;;9.48;1.58;;;16.20;99.90;;;;;;5047090;28;20531;-77
2022/07/07 06:31:43;;;;;;;8.13;1.40;;;16.30;99.90;;;;;;5050421;28;20064;-77
2022/07/07 06:34:09;;;;;;;9.65;1.42;;;16.30;99.90;;;;;;5033177;28;20041;-77
2022/07/07 06:36:34;;;;;;;6.53;1.40;;;16.40;99.90;;;;;;5039619;28;20099;-78
2022/07/07 06:39:00;;;;;;;5.95;0.98;;;16.40;99.90;;;;;;5050985;28;20069;-77
2022/07/07 06:41:34;;;;;;;10.43;1.55;;;16.60;99.90;;;;;;5047384;28;20052;-77
2022/07/07 06:44:00;;;;;;;7.35;1.20;;;16.60;99.90;;;;;;5050312;28;20036;-77
2022/07/07 06:46:26;;;;;;;7.43;1.27;;;16.60;99.90;;;;;;5051596;28;20091;-77
2022/07/07 06:48:51;;;;;;;7.22;1.17;;;16.70;99.90;;;;;;5036037;28;20086;-78
2022/07/07 06:51:17;;;;;;;9.27;1.40;;;16.70;99.90;;;;;;5055999;28;20429;-76
2022/07/07 06:53:42;;;;;;;4.25;1.20;;;16.60;99.90;;;;;;5053587;28;20045;-76
2022/07/07 06:56:08;;;;;;;6.03;1.00;;;16.40;99.90;;;;;;5046273;28;20037;-77
2022/07/07 06:58:33;;;;;;;5.25;1.10;;;16.30;99.90;;;;;;5016431;28;20144;-77
2022/07/07 07:00:59;;;;;;;4.95;0.85;;;16.10;99.90;;;;;;5033445;28;20126;-78
2022/07/07 07:03:24;;;;;;;5.70;0.80;;;16.10;99.90;;;;;;5045874;28;20067;-78
2022/07/07 07:05:50;;;;;;;3.85;0.70;;;16.00;99.90;;;;;;5052538;28;20068;-77
2022/07/07 07:08:16;;;;;;;4.93;0.60;;;16.30;99.90;;;;;;5036433;28;20124;-77
2022/07/07 07:10:41;;;;;;;4.53;1.00;;;16.60;99.90;;;;;;5035333;28;20091;-77
2022/07/07 07:13:07;;;;;;;5.63;0.95;;;16.70;99.90;;;;;;5053809;28;20098;-77
2022/07/07 07:15:32;;;;;;;5.50;0.90;;;16.80;99.90;;;;;;5052509;28;20041;-77
2022/07/07 07:17:58;;;;;;;3.53;0.60;;;16.70;99.90;;;;;;5054417;28;20045;-76
2022/07/07 07:20:23;;;;;;;2.15;0.50;;;16.60;99.90;;;;;;5035849;28;20040;-77
2022/07/07 07:22:49;;;;;;;2.55;0.52;;;16.50;99.90;;;;;;5054416;28;20072;-77
2022/07/07 07:25:16;;;;;;;4.80;0.70;;;16.60;99.90;;;;;;5052356;28;20051;-78
2022/07/07 07:27:41;;;;;;;5.55;0.60;;;16.70;99.90;;;;;;5052627;28;20048;-78
2022/07/07 07:30:07;;;;;;;3.47;0.80;;;16.90;99.90;;;;;;5052920;28;20033;-76
2022/07/07 07:32:33;;;;;;;4.13;0.80;;;17.10;99.90;;;;;;5051694;28;20113;-77
2022/07/07 07:34:58;;;;;;;7.65;1.00;;;17.10;99.90;;;;;;5045584;28;20036;-76
2022/07/07 07:37:24;;;;;;;3.47;0.95;;;17.00;99.90;;;;;;5050573;28;20084;-76
2022/07/07 07:39:50;;;;;;;5.80;0.90;;;16.80;99.90;;;;;;5046741;28;20033;-77
2022/07/07 07:42:15;;;;;;;9.55;1.65;;;16.70;99.90;;;;;;5027363;28;20088;-75
2022/07/07 07:47:25;;;;;;;;;;;16.40;99.90;;;;;;5046337;28;20045;-76
2022/07/07 07:49:50;;;;;;;3.15;0.70;;;16.40;99.90;;;;;;5047142;28;20503;-76
2022/07/07 07:52:16;;;;;;;3.15;0.77;;;16.30;99.90;;;;;;5049919;28;20036;-77
2022/07/07 07:54:41;;;;;;;4.18;0.93;;;16.40;99.90;;;;;;5029837;28;20047;-75
2022/07/07 07:57:07;;;;;;;4.57;0.73;;;16.40;99.90;;;;;;5045201;28;20044;-76
2022/07/07 07:59:32;;;;;;;6.00;1.10;;;16.90;99.90;;;;;;5048051;28;20170;-76
2022/07/07 08:01:58;;;;;;;4.88;0.88;;;17.20;99.90;;;;;;5039042;28;20037;-74
2022/07/07 08:04:23;;;;;;;6.70;1.10;;;17.30;99.90;;;;;;5045194;28;20032;-76
2022/07/07 08:06:49;;;;;;;8.73;1.30;;;17.50;99.90;;;;;;5043688;28;20039;-77
2022/07/07 08:09:14;;;;;;;4.47;1.10;;;17.60;99.90;;;;;;5045275;28;20036;-75
2022/07/07 08:11:40;;;;;;;5.05;1.02;;;17.50;99.90;;;;;;5046015;28;20063;-75
2022/07/07 08:14:06;;;;;;;6.95;1.02;;;17.60;99.90;;;;;;5044396;28;20037;-76
2022/07/07 08:16:32;;;;;;;4.60;1.05;;;17.40;99.90;;;;;;5042474;28;20037;-75
2022/07/07 08:18:57;;;;;;;7.32;1.10;;;17.20;99.90;;;;;;5044374;28;20601;-76
2022/07/07 08:21:24;;;;;;;8.80;1.25;;;17.00;99.90;;;;;;5043253;28;20422;-76
2022/07/07 08:23:49;;;;;;;6.72;1.15;;;17.00;99.90;;;;;;5043217;28;20040;-75
2022/07/07 08:26:15;;;;;;;4.70;1.30;;;17.00;99.90;;;;;;5045020;28;20033;-76
2022/07/07 08:28:41;;;;;;;6.07;1.52;;;17.00;99.90;;;;;;5026605;28;20059;-77
2022/07/07 08:31:07;;;;;;;7.53;1.60;;;17.30;99.90;;;;;;5044589;28;20099;-76
2022/07/07 08:33:33;;;;;;;11.63;1.83;;;17.50;99.90;;;;;;5036344;28;20522;-77
2022/07/07 08:35:59;;;;;;;9.77;2.15;;;17.50;99.90;;;;;;5040251;28;20059;-76
2022/07/07 08:38:24;;;;;;;10.90;2.55;;;17.30;99.90;;;;;;5041340;28;20041;-75
2022/07/07 08:40:51;;;;;;;8.93;1.60;;;17.20;99.90;;;;;;5039466;28;20064;-76
2022/07/07 08:43:16;;;;;;;7.13;1.58;;;17.20;99.90;;;;;;5038413;28;20448;-75
2022/07/07 08:45:42;;;;;;;5.30;1.33;;;17.40;99.90;;;;;;5038220;28;20079;-76
2022/07/07 08:48:08;;;;;;;6.13;1.50;;;17.70;99.90;;;;;;5042025;28;20456;-77
2022/07/07 08:50:37;;;;;;;8.55;1.38;;;18.00;99.90;;;;;;5039165;28;20045;-75
2022/07/07 08:53:03;;;;;;;8.07;1.35;;;18.00;99.90;;;;;;5038698;28;20684;-77
2022/07/07 08:55:31;;;;;;;6.88;1.42;;;17.70;99.90;;;;;;5036752;28;20041;-77
2022/07/07 08:57:56;;;;;;;5.35;1.60;;;17.70;99.90;;;;;;5032708;28;20037;-77
2022/07/07 09:00:22;;;;;;;10.35;1.70;;;17.90;99.90;;;;;;5042791;28;20041;-77
2022/07/07 09:02:49;;;;;;;8.40;1.55;;;18.00;99.90;;;;;;5034699;28;20041;-77
2022/07/07 09:05:15;;;;;;;5.68;1.40;;;18.00;99.90;;;;;;5046484;28;20094;-77
2022/07/07 09:07:49;;;;;;;6.90;1.50;;;17.80;99.90;;;;;;5026639;28;20037;-77
2022/07/07 09:10:34;;;;;;;;;;;17.50;99.90;;;;;;5047894;28;20487;-77
2022/07/07 09:13:00;;;;;;;;;;;17.30;99.90;;;;;;5043173;28;20269;-77
2022/07/07 09:15:26;;;;;;;7.85;1.30;;;17.10;99.90;;;;;;5043021;28;19916;-78
2022/07/07 09:17:53;;;;;;;6.63;1.60;;;17.20;99.90;;;;;;5041963;28;20120;-77
2022/07/07 09:20:18;;;;;;;7.85;1.35;;;17.30;99.90;;;;;;5040279;28;20119;-77
2022/07/07 09:22:50;;;;;;;7.25;1.58;;;17.40;99.90;;;;;;5041598;28;20037;-77
2022/07/07 09:25:24;;;;;;;5.05;1.17;;;17.60;99.90;;;;;;5041356;28;20491;-77
2022/07/07 09:27:53;;;;;;;7.40;1.35;;;17.90;99.90;;;;;;5042185;28;20033;-77
2022/07/07 09:30:33;;;;;;;7.60;1.40;;;18.10;99.90;;;;;;5044927;28;20527;-78
2022/07/07 09:33:04;;;;;;;10.15;1.63;;;18.10;99.90;;;;;;5043358;28;20041;-78
2022/07/07 09:38:17;;;;;;;7.32;1.42;;;18.30;99.90;;;;;;5044841;28;20045;-76
2022/07/07 09:40:59;;;;;;;5.75;1.20;;;18.20;99.90;;;;;;5041117;28;20493;-77
2022/07/07 09:43:28;;;;;;;4.05;0.90;;;18.00;99.90;;;;;;5041658;28;20499;-77
2022/07/07 09:46:14;;;;;;;3.22;0.77;;;17.70;99.90;;;;;;5040945;28;20502;-76
2022/07/07 09:48:44;;;;;;;6.50;1.42;;;17.60;99.90;;;;;;5049417;28;20036;-77
2022/07/07 09:51:30;;;;;;;4.75;1.00;;;17.70;99.90;;;;;;5041946;28;20045;-78
2022/07/07 09:54:16;;;;;;;7.30;1.27;;;17.80;99.90;;;;;;5038987;28;20128;-77
2022/07/07 09:56:45;;;;;;;3.17;1.15;;;17.60;99.90;;;;;;5040210;28;21506;-76
2022/07/07 09:59:13;;;;;;;3.58;0.90;;;17.40;99.90;;;;;;5040271;28;20552;-76
2022/07/07 10:01:44;;;;;;;5.47;0.80;;;17.50;99.90;;;;;;5041224;28;20124;-77
2022/07/07 10:04:16;;;;;;;4.85;0.90;;;17.50;99.90;;;;;;5042102;28;20043;-77
2022/07/07 10:06:43;;;;;;;7.47;1.03;;;17.50;99.90;;;;;;5043193;28;20039;-76
2022/07/07 10:09:18;;;;;;;7.88;1.30;;;17.40;99.90;;;;;;5025966;28;20167;-76
2022/07/07 10:11:54;;;;;;;8.25;1.40;;;17.40;99.90;;;;;;5044606;28;20076;-78
2022/07/07 10:14:22;;;;;;;3.30;1.23;;;17.30;99.90;;;;;;5040942;28;20036;-77
2022/07/07 10:16:50;;;;;;;7.95;1.83;;;17.40;99.90;;;;;;5042167;28;20090;-77
2022/07/07 10:19:18;;;;;;;5.63;1.35;;;17.40;99.90;;;;;;5043983;28;20124;-77
2022/07/07 10:21:49;;;;;;;5.03;1.45;;;17.30;99.90;;;;;;5024001;28;20041;-76
2022/07/07 10:24:17;;;;;;;11.23;1.92;;;17.20;99.90;;;;;;5025001;28;20398;-77
2022/07/07 10:26:46;;;;;;;12.13;2.25;;;17.10;99.90;;;;;;5043183;28;20320;-76
2022/07/07 10:29:12;;;;;;;9.32;1.80;;;17.20;99.90;;;;;;5026032;28;20095;-76
2022/07/07 10:31:38;;;;;;;10.13;1.85;;;17.10;99.90;;;;;;5047009;28;20033;-77
2022/07/07 10:34:06;;;;;;;9.98;1.83;;;17.00;99.90;;;;;;5041818;28;20037;-76
2022/07/07 10:36:50;;;;;;;11.50;2.05;;;17.10;99.90;;;;;;5045165;28;20425;-78
2022/07/07 10:39:23;;;;;;;12.35;2.40;;;17.00;99.90;;;;;;5030371;28;20064;-77
2022/07/07 10:42:16;;;;;;;9.50;1.73;;;17.10;99.90;;;;;;5042970;28;20830;-77
2022/07/07 10:44:44;;;;;;;8.83;2.07;;;17.30;99.90;;;;;;5044755;28;20572;-77
2022/07/07 10:47:16;;;;;;;9.70;2.10;;;17.40;99.90;;;;;;5044363;28;20041;-76
2022/07/07 10:49:53;;;;;;;13.68;2.58;;;17.40;99.90;;;;;;5056524;28;20237;-76
2022/07/07 10:52:21;;;;;;;16.50;2.67;;;17.30;99.90;;;;;;5045177;28;20399;-78
2022/07/07 10:54:51;;;;;;;12.82;1.92;;;17.20;99.90;;;;;;5031556;28;20033;-78
2022/07/07 10:57:19;;;;;;;12.80;2.22;;;17.20;99.90;;;;;;5044072;28;20495;-78
2022/07/07 10:59:59;;;;;;;14.30;2.15;;;17.40;99.90;;;;;;5044062;28;20550;-78
2022/07/07 11:02:35;;;;;;;9.13;1.77;;;17.60;99.90;;;;;;5044602;28;20044;-77
2022/07/07 11:05:24;;;;;;;12.38;2.22;;;17.70;99.90;;;;;;5044552;28;20660;-77
2022/07/07 11:07:56;;;;;;;11.48;2.15;;;17.60;99.90;;;;;;5039659;28;20455;-77
2022/07/07 11:10:44;;;;;;;16.38;2.65;;;17.40;99.90;;;;;;5044990;28;20064;-78
2022/07/07 11:13:17;;;;;;;12.52;2.30;;;17.30;99.90;;;;;;5029218;28;20491;-79
2022/07/07 11:16:07;;;;;;;14.07;2.30;;;17.10;99.90;;;;;;5044434;28;20090;-78
2022/07/07 11:18:34;;;;;;;16.25;2.50;;;17.10;99.90;;;;;;5030722;28;20045;-77
2022/07/07 11:21:03;;;;;;;14.35;2.45;;;17.00;99.90;;;;;;5042597;28;20120;-76
2022/07/07 11:23:56;;;;;;;14.27;2.28;;;17.10;99.90;;;;;;5051648;28;20135;-76
2022/07/07 11:26:26;;;;;;;14.35;2.15;;;17.40;99.90;;;;;;5039035;28;20052;-77
2022/07/07 11:28:57;;;;;;;12.57;2.00;;;17.50;99.90;;;;;;5044758;28;20112;-76
2022/07/07 11:31:23;;;;;;;7.65;1.63;;;17.60;99.90;;;;;;5027335;28;20041;-77
2022/07/07 11:33:53;;;;;;;11.02;1.75;;;17.60;99.90;;;;;;5043332;28;20041;-77
2022/07/07 11:36:28;;;;;;;8.50;1.77;;;17.70;99.90;;;;;;5041662;28;20113;-77
2022/07/07 11:39:03;;;;;;;9.40;1.90;;;17.60;99.90;;;;;;5045464;28;20037;-78
2022/07/07 11:41:37;;;;;;;17.33;2.63;;;17.70;99.90;;;;;;5044576;28;20035;-76
2022/07/07 11:44:02;;;;;;;8.55;1.67;;;17.90;99.90;;;;;;5044477;28;20072;-77
2022/07/07 11:46:28;;;;;;;10.27;1.65;;;18.10;99.90;;;;;;5044414;28;20029;-77
2022/07/07 11:48:54;;;;;;;15.80;2.47;;;18.20;99.90;;;;;;5029939;28;20179;-78
2022/07/07 11:51:28;;;;;;;10.77;1.95;;;18.20;99.90;;;;;;5042218;28;20033;-77
2022/07/07 11:53:58;;;;;;;7.32;1.70;;;18.50;99.90;;;;;;5043118;28;20068;-76
2022/07/07 11:56:31;;;;;;;14.70;2.65;;;18.60;99.90;;;;;;5044481;28;20057;-77
2022/07/07 11:58:58;;;;;;;8.10;1.88;;;18.40;99.90;;;;;;5046218;28;20041;-78
2022/07/07 12:01:23;;;;;;;10.77;2.20;;;18.60;99.90;;;;;;5044157;28;20461;-77
2022/07/07 12:03:49;;;;;;;13.15;2.22;;;18.50;99.90;;;;;;5043951;28;20032;-78
2022/07/07 12:06:15;;;;;;;12.40;2.92;;;18.40;99.90;;;;;;5040998;28;20079;-76
2022/07/07 12:08:41;;;;;;;14.68;2.17;;;18.40;99.90;;;;;;5044713;28;20037;-76
2022/07/07 12:11:08;;;;;;;8.02;1.88;;;18.70;99.90;;;;;;5046955;28;20124;-77
2022/07/07 12:13:33;;;;;;;12.88;2.30;;;18.50;99.90;;;;;;5043720;28;20450;-77
2022/07/07 12:16:03;;;;;;;12.93;2.55;;;18.30;99.90;;;;;;5046589;28;20048;-78
2022/07/07 12:18:33;;;;;;;12.65;2.50;;;18.20;99.90;;;;;;5047456;28;20156;-78
2022/07/07 12:21:02;;;;;;;11.50;2.70;;;18.10;99.90;;;;;;5045817;28;20033;-77
2022/07/07 12:23:27;;;;;;;9.05;2.58;;;18.10;99.90;;;;;;5033894;28;20037;-78
2022/07/07 12:26:08;;;;;;;10.15;2.28;;;18.10;99.90;;;;;;5028969;28;20393;-77
2022/07/07 12:28:35;;;;;;;11.80;2.15;;;18.30;99.90;;;;;;5034047;28;20048;-77
2022/07/07 12:31:01;;;;;;;11.95;2.50;;;18.40;99.90;;;;;;5045288;28;20071;-78
2022/07/07 12:33:38;;;;;;;11.98;2.28;;;18.50;99.90;;;;;;5047934;28;20072;-77
2022/07/07 12:36:17;;;;;;;10.35;2.10;;;18.40;99.90;;;;;;5048299;28;20072;-79
2022/07/07 12:38:45;;;;;;;9.18;1.90;;;18.30;99.90;;;;;;5049135;28;20032;-78
2022/07/07 12:41:34;;;;;;;11.18;2.10;;;18.30;99.90;;;;;;5043062;28;20059;-78
2022/07/07 12:44:25;;;;;;;11.15;2.35;;;18.50;99.90;;;;;;5042219;28;20449;-79
2022/07/07 12:46:56;;;;;;;8.02;1.77;;;18.50;99.90;;;;;;5032677;28;20040;-78
2022/07/07 12:49:21;;;;;;;9.45;1.80;;;18.40;99.90;;;;;;5042730;28;20029;-78
2022/07/07 12:51:49;;;;;;;11.43;1.90;;;18.30;99.90;;;;;;5030295;28;20040;-77